Salem, New Jersey
Current Conditions -  °F | °C
As of 3:51 AM on Saturday 22 Nov 2014 (Local Time) from KILG Reporting Station
Clear Clear  
Wind Chill: -5°   Ceiling: Unl
Heat Index: -5°   Visibility: 10mi
Dew Point: -11°   Wind: 3mph
Humidity: 65%   Direction: 240°WSW
Pressure: 30.54"   Gusts: NA
Location:  39.57°N, 75.47°W
Report Text: KILG 220851Z 24003KT 10SM CLR M05/M11 A3054 RMK AO2 SLP341 T10501106 56005
Loading
Personal Weather Stations






























Interactive Weather Map New forecast layout! Learn more

10-Day Weather Forecast

Advertisements
Track Severe Weather on mobile